Terminal Aerodrome Forecast
Issued by NWS Jackson, MS

Home | Current Version | Previous Version | Text Only | Print | Product List | Glossary On
Versions: 1 2 3 4 5 6 7 8 9 10 11 12 13 14 15 16 17 18 19 20 21 22
000
FTUS44 KJAN 032341
TAFHBG
TAF
KHBG 032341Z 0400/0424 33005KT P6SM FEW050
     FM041100 32003KT 3SM BR BKN005
     FM041430 33008KT P6SM SCT015 SCT250
     FM041800 32012G20KT P6SM FEW050=

USA.gov is the U.S. government's official web portal to all federal, state and local government web resources and services.